ADDS METAR Data INFO
IDs: Format: Raw Decoded Include TAF

Data at: 1746 UTC 21 Oct 2017

KENL 211735Z AUTO 17012G19KT 10SM CLR 25/15 A3010 RMK AO2 T02450146
KENL 211715Z AUTO 18015G22KT 10SM CLR 24/15 A3010 RMK AO2 T02440145
KENL 211655Z AUTO 18013G17KT 10SM CLR 25/14 A3010 RMK AO2 T02490141
KENL 211635Z AUTO 18014G22KT 10SM CLR 24/14 A3010 RMK AO2 T02440139
KENL 211615Z AUTO 18015G20KT 10SM CLR 23/13 A3010 RMK AO2 T02320132
KENL 211555Z AUTO 19018G24KT 10SM CLR 23/13 A3010 RMK AO2 T02300128
KENL 211535Z AUTO 17013G18KT 10SM CLR 22/13 A3011 RMK AO2 T02230127
KENL 211515Z AUTO 18017G20KT 10SM CLR 22/13 A3011 RMK AO2 T02210127
KENL 211455Z AUTO 18014G18KT 10SM CLR 21/13 A3011 RMK AO2 T02110125
KENL 211435Z AUTO 18012G19KT 10SM CLR 21/12 A3011 RMK AO2 T02100123
KENL 211415Z AUTO 17014G23KT 10SM CLR 20/12 A3010 RMK AO2 T02030120
KENL 211355Z AUTO 16010KT 10SM CLR 18/11 A3010 RMK AO2 T01830114
KENL 211335Z AUTO 16010KT 10SM CLR 18/11 A3011 RMK AO2 T01820113
KENL 211315Z AUTO 16008KT 10SM CLR 17/11 A3011 RMK AO2 LTG DSNT NW T01700111
KENL 211255Z AUTO 16009KT 10SM CLR 16/11 A3011 RMK AO2 T01620110
KENL 211235Z AUTO 16007KT 10SM CLR 16/11 A3010 RMK AO2 T01550108
KENL 211215Z AUTO 16006KT 10SM CLR 15/11 A3010 RMK AO2 T01510106
KENL 211155Z AUTO 16008KT 10SM CLR 15/11 A3010 RMK AO2 T01530105 10180 20141
KENL 211135Z AUTO 15008KT 10SM CLR 15/11 A3010 RMK AO2 T01480105
KENL 211115Z AUTO 15007KT 10SM CLR 15/11 A3010 RMK AO2 T01490105
KENL 211055Z AUTO 15007KT 10SM CLR 15/11 A3009 RMK AO2 T01500106
KENL 211035Z AUTO 15007KT 10SM CLR 15/10 A3009 RMK AO2 T01450103
KENL 211015Z AUTO 15008KT 10SM CLR 14/10 A3009 RMK AO2 T01430104
KENL 210955Z AUTO 15006KT 10SM CLR 14/10 A3009 RMK AO2 T01420104
KENL 210935Z AUTO 15007KT 10SM CLR 14/10 A3008 RMK AO2 T01430104
KENL 210915Z AUTO 15005KT 10SM CLR 14/10 A3008 RMK AO2 T01430101
KENL 210855Z AUTO 15005KT 10SM CLR 15/10 A3008 RMK AO2 T01450101
KENL 210835Z AUTO 16005KT 10SM CLR 14/10 A3008 RMK AO2 T01440100
KENL 210815Z AUTO 16004KT 10SM CLR 15/10 A3008 RMK AO2 T01510102
KENL 210755Z AUTO 17007KT 10SM CLR 16/10 A3008 RMK AO2 LTG DSNT W T01560102
KENL 210735Z AUTO 16008KT 10SM CLR 16/10 A3007 RMK AO2 T01630103
KENL 210715Z AUTO 16010G14KT 10SM CLR 17/10 A3007 RMK AO2 T01690103
KENL 210655Z AUTO 15011G15KT 10SM CLR 17/11 A3006 RMK AO2 T01700105
KENL 210635Z AUTO 16009KT 10SM CLR 17/11 A3007 RMK AO2 T01720108
KENL 210615Z AUTO 16010KT 10SM CLR 18/11 A3007 RMK AO2 T01750110
KENL 210555Z AUTO 16011KT 10SM CLR 18/11 A3006 RMK AO2 T01800111 10196 20172 402610097
KENL 210535Z AUTO 16011KT 10SM CLR 18/11 A3007 RMK AO2 T01800110
KENL 210515Z AUTO 15010KT 10SM CLR 18/11 A3008 RMK AO2 T01800109
KENL 210455Z AUTO 15007KT 10SM CLR 18/11 A3008 RMK AO2 T01800108
KENL 210435Z AUTO 17008KT 10SM CLR 18/11 A3009 RMK AO2 T01760107
KENL 210415Z AUTO 16007KT 10SM CLR 17/11 A3009 RMK AO2 T01730107
KENL 210355Z AUTO 15006KT 10SM CLR 18/11 A3009 RMK AO2 T01750110
KENL 210335Z AUTO 15007KT 10SM CLR 18/11 A3010 RMK AO2 T01750110
KENL 210315Z AUTO 15007KT 10SM CLR 18/11 A3010 RMK AO2 T01810112
KENL 210255Z AUTO 15008KT 10SM CLR 19/11 A3010 RMK AO2 T01850113
KENL 210235Z AUTO 16008KT 10SM CLR 19/11 A3010 RMK AO2 T01850112
KENL 210215Z AUTO 16008KT 10SM CLR 19/11 A3009 RMK AO2 T01870113
KENL 210155Z AUTO 15008KT 10SM CLR 19/11 A3009 RMK AO2 T01870113
KENL 210135Z AUTO 14008KT 10SM CLR 19/12 A3009 RMK AO2 T01900115
KENL 210115Z AUTO 14008KT 10SM CLR 19/11 A3009 RMK AO2 T01870113
KENL 210055Z AUTO 16007KT 10SM CLR 19/11 A3010 RMK AO2 T01880112
KENL 210035Z AUTO 17008KT 10SM CLR 19/11 A3010 RMK AO2 T01940113
KENL 210015Z AUTO 15008KT 10SM CLR 20/12 A3009 RMK AO2 T01950115
KENL 202355Z AUTO 14005KT 10SM CLR 19/11 A3010 RMK AO2 T01870113 10261 20187
KENL 202335Z AUTO 15004KT 10SM CLR 19/11 A3010 RMK AO2 T01900111
KENL 202315Z AUTO 16005KT 10SM CLR 20/11 A3010 RMK AO2 T02030113
KENL 202255Z AUTO 15006KT 10SM CLR 21/12 A3010 RMK AO2 T02120115
KENL 202235Z AUTO 16006KT 10SM CLR 22/12 A3010 RMK AO2 T02210115
KENL 202215Z AUTO 15008KT 10SM CLR 23/11 A3009 RMK AO2 T02300113
KENL 202155Z AUTO 14008KT 10SM CLR 24/12 A3010 RMK AO2 T02400117
KENL 202135Z AUTO 15007KT 10SM CLR 24/12 A3010 RMK AO2 T02350115
KENL 202115Z AUTO 16009KT 10SM CLR 24/11 A3011 RMK AO2 T02440111
KENL 202055Z AUTO 15008KT 10SM CLR 25/11 A3011 RMK AO2 T02470106
KENL 202035Z AUTO 17011KT 10SM CLR 25/10 A3012 RMK AO2 T02470104
KENL 202015Z AUTO 16009G14KT 10SM CLR 25/10 A3012 RMK AO2 T02500102
KENL 201955Z AUTO 15010KT 10SM CLR 25/11 A3013 RMK AO2 T02500113
KENL 201935Z AUTO 14007KT 10SM CLR 26/11 A3013 RMK AO2 T02570106
KENL 201915Z AUTO 14007KT 10SM CLR 25/11 A3013 RMK AO2 T02540109
KENL 201855Z AUTO 16009KT 10SM CLR 26/11 A3014 RMK AO2 T02550106
KENL 201835Z AUTO 13007KT 10SM CLR 25/10 A3015 RMK AO2 T02540102
KENL 201815Z AUTO 15008KT 110V180 10SM CLR 25/10 A3016 RMK AO2 T02480104
KENL 201755Z AUTO 14003KT 10SM CLR 24/11 A3018 RMK AO2 T02410105 10245 20106
KENL 201735Z AUTO 00000KT 10SM CLR 24/11 A3019 RMK AO2 T02380108
KENL 201715Z AUTO 21004KT 10SM CLR 24/11 A3021 RMK AO2 T02350113
KENL 201655Z AUTO 24005KT 10SM CLR 23/12 A3022 RMK AO2 T02300116
KENL 201635Z AUTO 22007KT 10SM CLR 23/12 A3023 RMK AO2 T02280117
KENL 201615Z AUTO 21006KT 10SM CLR 22/12 A3023 RMK AO2 T02230121
KENL 201555Z AUTO 20004KT 10SM CLR 21/12 A3024 RMK AO2 T02140122
KENL 201535Z AUTO 20006KT 10SM CLR 21/13 A3025 RMK AO2 T02060125
KENL 201515Z AUTO 19005KT 10SM CLR 20/12 A3025 RMK AO2 T01980122
KENL 201455Z AUTO 19008KT 10SM CLR 19/12 A3025 RMK AO2 T01900123
KENL 201435Z AUTO 19006KT 10SM CLR 18/13 A3025 RMK AO2 T01840126
KENL 201415Z AUTO 17006KT 10SM CLR 17/12 A3025 RMK AO2 T01690124
KENL 201355Z AUTO 17004KT 10SM CLR 16/12 A3025 RMK AO2 T01570121
KENL 201335Z AUTO 00000KT 10SM CLR 14/12 A3024 RMK AO2 T01440118
KENL 201315Z AUTO 00000KT 10SM CLR 13/11 A3024 RMK AO2 T01310114
KENL 201255Z AUTO 00000KT 10SM CLR 12/11 A3024 RMK AO2 T01210107
KENL 201235Z AUTO 00000KT 10SM CLR 11/10 A3024 RMK AO2 T01100100
KENL 201215Z AUTO 00000KT 10SM CLR 11/10 A3023 RMK AO2 T01070098
KENL 201155Z AUTO 00000KT 10SM CLR 11/10 A3023 RMK AO2 T01070097 10146 20097
KENL 201135Z AUTO 00000KT 10SM CLR 11/10 A3023 RMK AO2 T01060096
KENL 201115Z AUTO 00000KT 10SM CLR 11/10 A3023 RMK AO2 T01050100
KENL 201055Z AUTO 15003KT 10SM CLR 10/10 A3022 RMK AO2 T00990095
KENL 201035Z AUTO 00000KT 10SM CLR 10/10 A3022 RMK AO2 T01000095
KENL 201015Z AUTO 14003KT 10SM CLR 11/10 A3021 RMK AO2 T01070101
KENL 200955Z AUTO 00000KT 10SM CLR 10/09 A3021 RMK AO2 T01010093
KENL 200935Z AUTO 00000KT 10SM CLR 11/10 A3020 RMK AO2 T01060098
KENL 200915Z AUTO 15003KT 10SM CLR 11/10 A3020 RMK AO2 T01140100
KENL 200855Z AUTO 15004KT 10SM CLR 12/11 A3020 RMK AO2 T01240107
KENL 200835Z AUTO 15003KT 10SM CLR 12/11 A3020 RMK AO2 T01240106
KENL 200815Z AUTO 00000KT 10SM CLR 12/10 A3020 RMK AO2 T01170100
KENL 200755Z AUTO 00000KT 10SM CLR 12/10 A3019 RMK AO2 T01150099
KENL 200735Z AUTO 00000KT 10SM CLR 12/10 A3019 RMK AO2 T01220100
KENL 200715Z AUTO 00000KT 10SM CLR 14/11 A3019 RMK AO2 T01360106
KENL 200655Z AUTO 16005KT 10SM CLR 14/11 A3019 RMK AO2 T01400107
KENL 200635Z AUTO 15004KT 10SM CLR 14/11 A3019 RMK AO2 T01400109
KENL 200615Z AUTO 16004KT 10SM CLR 14/11 A3019 RMK AO2 T01420110
KENL 200600Z AUTO 17005KT 10SM CLR 15/11 A3019 RMK AO2 T01460111